createdAt,value
2023-02-17T00:01:36.186Z,8.45
2023-02-17T00:04:04.251Z,8.66
2023-02-17T00:06:32.677Z,8.65
2023-02-17T00:09:02.024Z,8.38
2023-02-17T00:11:30.445Z,8.24
2023-02-17T00:13:59.452Z,8.31
2023-02-17T00:16:29.076Z,8.18
2023-02-17T00:19:01.012Z,8.06
2023-02-17T00:21:31.814Z,7.90
2023-02-17T00:24:00.010Z,7.71
2023-02-17T00:26:29.022Z,7.63
2023-02-17T00:28:58.641Z,7.64
2023-02-17T00:31:26.838Z,7.61
2023-02-17T00:33:56.042Z,7.64
2023-02-17T00:36:24.753Z,7.60
2023-02-17T00:38:55.205Z,7.57
2023-02-17T00:41:24.022Z,7.59
2023-02-17T00:43:51.519Z,7.58
2023-02-17T00:46:20.180Z,7.46
2023-02-17T00:48:48.909Z,7.38
2023-02-17T00:51:18.507Z,7.33
2023-02-17T00:53:46.984Z,7.23
2023-02-17T00:56:15.836Z,7.10
2023-02-17T00:58:46.367Z,7.16
2023-02-17T01:01:14.114Z,7.08
2023-02-17T01:03:42.381Z,6.78
2023-02-17T01:06:22.355Z,6.74
2023-02-17T01:08:50.657Z,6.92
2023-02-17T01:11:31.809Z,6.94
2023-02-17T01:14:02.072Z,6.82
2023-02-17T01:16:35.563Z,6.84
2023-02-17T01:19:11.511Z,6.80
2023-02-17T01:21:39.732Z,6.86
2023-02-17T01:24:13.121Z,6.86
2023-02-17T01:26:41.110Z,6.83
2023-02-17T01:29:09.278Z,6.76
2023-02-17T01:31:37.144Z,6.73
2023-02-17T01:34:05.652Z,6.72
2023-02-17T01:36:34.307Z,6.80
2023-02-17T01:39:01.953Z,6.65
2023-02-17T01:41:30.298Z,6.61
2023-02-17T01:44:21.837Z,6.56
2023-02-17T01:46:52.729Z,6.48
2023-02-17T01:49:38.376Z,6.55
2023-02-17T01:52:24.867Z,6.51
2023-02-17T01:55:01.436Z,6.48
2023-02-17T01:57:32.257Z,6.43
2023-02-17T02:00:00.317Z,6.31
2023-02-17T02:02:31.056Z,6.31
2023-02-17T02:04:59.065Z,6.26
2023-02-17T02:07:36.710Z,6.24
2023-02-17T02:10:05.208Z,6.34
2023-02-17T02:12:38.667Z,6.24
2023-02-17T02:15:13.198Z,5.84
2023-02-17T02:17:59.632Z,5.90
2023-02-17T02:20:33.842Z,5.95
2023-02-17T02:23:32.413Z,5.93
2023-02-17T02:26:47.626Z,5.86
2023-02-17T02:29:20.824Z,5.80
2023-02-17T02:32:38.168Z,5.85
2023-02-17T02:35:22.647Z,5.92
2023-02-17T02:38:12.670Z,5.77
2023-02-17T02:40:50.218Z,5.76
2023-02-17T02:43:18.707Z,5.72
2023-02-17T02:45:46.435Z,5.50
2023-02-17T02:48:14.032Z,5.36
2023-02-17T02:51:06.235Z,5.27
2023-02-17T02:53:52.648Z,5.16
2023-02-17T02:56:48.532Z,5.20
2023-02-17T02:59:31.932Z,5.18
2023-02-17T03:02:29.924Z,5.09
2023-02-17T03:05:53.381Z,4.79
2023-02-17T03:08:38.392Z,4.40
2023-02-17T03:11:07.517Z,4.36
2023-02-17T03:13:39.556Z,4.25
2023-02-17T03:16:12.208Z,4.04
2023-02-17T03:18:40.252Z,4.11
2023-02-17T03:21:16.417Z,4.22
2023-02-17T03:23:44.091Z,4.23
2023-02-17T03:26:12.171Z,4.23
2023-02-17T03:28:40.106Z,4.25
2023-02-17T03:31:08.889Z,4.21
2023-02-17T03:33:36.932Z,4.19
2023-02-17T03:36:05.421Z,4.07
2023-02-17T03:38:33.685Z,4.05
2023-02-17T03:41:01.225Z,4.09
2023-02-17T03:43:29.258Z,4.08
2023-02-17T03:45:57.289Z,4.10
2023-02-17T03:48:25.331Z,4.02
2023-02-17T03:50:53.351Z,3.98
2023-02-17T03:53:21.174Z,3.97
2023-02-17T03:55:49.140Z,3.90
2023-02-17T03:58:16.666Z,3.95
2023-02-17T04:00:44.107Z,4.01
2023-02-17T04:03:12.096Z,4.02
2023-02-17T04:05:40.050Z,3.99
2023-02-17T04:08:08.024Z,3.94
2023-02-17T04:10:35.491Z,4.03
2023-02-17T04:13:04.089Z,4.08
2023-02-17T04:15:32.795Z,4.07
2023-02-17T04:18:00.468Z,3.98
2023-02-17T04:20:28.464Z,4.12
2023-02-17T04:22:56.856Z,4.24
2023-02-17T04:25:24.828Z,4.17
2023-02-17T04:27:52.871Z,4.15
2023-02-17T04:30:20.534Z,4.05
2023-02-17T04:32:48.125Z,3.95
2023-02-17T04:35:15.708Z,3.91
2023-02-17T04:37:43.806Z,3.91
2023-02-17T04:40:12.221Z,3.94
2023-02-17T04:42:40.137Z,3.89
2023-02-17T04:45:08.502Z,3.85
2023-02-17T04:47:36.793Z,3.87
2023-02-17T04:50:05.787Z,3.87
2023-02-17T04:52:33.722Z,3.78
2023-02-17T04:55:02.396Z,3.68
2023-02-17T04:57:30.048Z,3.56
2023-02-17T04:59:57.634Z,3.39
2023-02-17T05:02:28.498Z,3.15
2023-02-17T05:04:56.558Z,3.00
2023-02-17T05:07:24.708Z,2.94
2023-02-17T05:09:54.245Z,2.56
2023-02-17T05:12:22.260Z,2.57
2023-02-17T05:14:50.151Z,2.53
2023-02-17T05:17:18.653Z,2.28
2023-02-17T05:19:46.119Z,2.19
2023-02-17T05:22:14.145Z,2.30
2023-02-17T05:24:42.169Z,1.88
2023-02-17T05:27:09.929Z,1.96
2023-02-17T05:29:38.176Z,1.92
2023-02-17T05:32:05.719Z,1.99
2023-02-17T05:34:33.719Z,2.00
2023-02-17T05:37:01.629Z,2.03
2023-02-17T05:39:29.505Z,2.04
2023-02-17T05:41:57.639Z,2.07
2023-02-17T05:44:25.740Z,2.07
2023-02-17T05:46:53.978Z,2.09
2023-02-17T05:49:22.008Z,2.10
2023-02-17T05:51:49.655Z,2.06
2023-02-17T05:54:17.597Z,2.10
2023-02-17T05:56:45.156Z,2.12
2023-02-17T05:59:12.661Z,2.06
2023-02-17T06:01:41.137Z,2.02
2023-02-17T06:04:09.223Z,2.05
2023-02-17T06:06:36.772Z,2.11
2023-02-17T06:09:04.415Z,2.04
2023-02-17T06:11:33.743Z,2.25
2023-02-17T06:14:02.148Z,2.11
2023-02-17T06:16:29.951Z,1.89
2023-02-17T06:19:00.055Z,1.99
2023-02-17T06:21:28.139Z,2.13
2023-02-17T06:23:56.270Z,2.14
2023-02-17T06:26:24.188Z,2.18
2023-02-17T06:28:52.077Z,2.17
2023-02-17T06:31:19.827Z,2.35
2023-02-17T06:33:47.700Z,2.29
2023-02-17T06:36:15.756Z,2.48
2023-02-17T06:38:43.628Z,2.59
2023-02-17T06:41:11.596Z,2.86
2023-02-17T06:43:39.661Z,3.23
2023-02-17T06:46:08.072Z,3.19
2023-02-17T06:48:35.942Z,3.13
2023-02-17T06:51:04.652Z,3.03
2023-02-17T06:53:32.876Z,3.09
2023-02-17T06:56:01.149Z,3.21
2023-02-17T06:58:29.164Z,3.22
2023-02-17T07:00:56.668Z,3.29
2023-02-17T07:03:24.589Z,3.44
2023-02-17T07:05:57.547Z,3.68
2023-02-17T07:08:26.630Z,3.64
2023-02-17T07:10:54.878Z,3.72
2023-02-17T07:13:22.846Z,3.83
2023-02-17T07:15:50.425Z,3.96
2023-02-17T07:18:18.448Z,4.12
2023-02-17T07:20:46.413Z,3.97
2023-02-17T07:23:14.120Z,4.08
2023-02-17T07:25:42.352Z,4.23
2023-02-17T07:28:10.685Z,4.42
2023-02-17T07:30:43.548Z,4.48
2023-02-17T07:33:11.576Z,4.29
2023-02-17T07:35:46.722Z,4.74
2023-02-17T07:38:14.741Z,4.89
2023-02-17T07:40:43.220Z,5.19
2023-02-17T07:43:11.241Z,5.33
2023-02-17T07:45:39.376Z,5.54
2023-02-17T07:48:06.890Z,5.66
2023-02-17T07:50:34.966Z,6.01
2023-02-17T07:53:02.569Z,6.08
2023-02-17T07:55:30.569Z,6.06
2023-02-17T07:57:59.948Z,6.41
2023-02-17T08:00:28.172Z,6.75
2023-02-17T08:02:56.234Z,6.94
2023-02-17T08:05:23.886Z,6.97
2023-02-17T08:08:12.016Z,7.28
2023-02-17T08:11:16.234Z,7.51
2023-02-17T08:13:45.582Z,7.39
2023-02-17T08:16:13.166Z,7.62
2023-02-17T08:18:41.264Z,7.88
2023-02-17T08:21:09.126Z,7.91
2023-02-17T08:23:37.189Z,8.20
2023-02-17T08:26:05.481Z,8.07
2023-02-17T08:28:33.411Z,8.40
2023-02-17T08:31:02.826Z,8.62
2023-02-17T08:33:30.868Z,8.92
2023-02-17T08:35:58.839Z,8.83
2023-02-17T08:38:27.179Z,8.86
2023-02-17T08:40:54.754Z,8.77
2023-02-17T08:43:23.306Z,8.15
2023-02-17T08:45:51.411Z,8.34
2023-02-17T08:48:19.469Z,8.64
2023-02-17T08:50:48.429Z,7.74
2023-02-17T08:53:16.984Z,8.92
2023-02-17T08:55:49.496Z,9.04
2023-02-17T08:58:18.077Z,8.88
2023-02-17T09:00:45.621Z,9.32
2023-02-17T09:03:14.050Z,9.54
2023-02-17T09:05:42.646Z,9.44
2023-02-17T09:08:11.135Z,9.74
2023-02-17T09:10:39.624Z,10.15
2023-02-17T09:13:07.698Z,10.59
2023-02-17T09:15:35.434Z,11.31
2023-02-17T09:18:04.002Z,11.66
2023-02-17T09:20:32.433Z,11.56
2023-02-17T09:23:00.163Z,12.04
2023-02-17T09:25:28.364Z,11.89
2023-02-17T09:27:57.956Z,12.36
2023-02-17T09:30:27.118Z,12.39
2023-02-17T09:32:55.069Z,12.43
2023-02-17T09:35:23.197Z,13.09
2023-02-17T09:37:51.334Z,13.74
2023-02-17T09:40:28.710Z,13.81
2023-02-17T09:42:56.702Z,14.69
2023-02-17T09:45:32.982Z,14.05
2023-02-17T09:48:06.430Z,15.08
2023-02-17T09:50:53.658Z,15.59
2023-02-17T09:53:50.844Z,15.23
2023-02-17T09:56:26.631Z,15.27
2023-02-17T09:58:57.958Z,15.77
2023-02-17T10:01:31.079Z,15.55
2023-02-17T10:04:05.201Z,16.18
2023-02-17T10:06:36.141Z,16.64
2023-02-17T10:09:03.700Z,16.92
2023-02-17T10:11:33.868Z,17.44
2023-02-17T10:14:42.668Z,16.36
2023-02-17T10:17:37.842Z,16.33
2023-02-17T10:20:24.161Z,17.51
2023-02-17T10:22:59.900Z,17.58
2023-02-17T10:25:54.079Z,17.72
2023-02-17T10:28:39.756Z,17.08
2023-02-17T10:31:15.521Z,17.24
2023-02-17T10:34:01.111Z,16.70
2023-02-17T10:36:58.101Z,15.45
2023-02-17T10:39:52.106Z,15.77
2023-02-17T10:42:36.473Z,15.82
2023-02-17T10:45:10.787Z,16.65
2023-02-17T10:47:40.120Z,17.88
2023-02-17T10:50:28.623Z,16.95
2023-02-17T10:52:56.756Z,16.62
2023-02-17T10:55:39.153Z,15.95
2023-02-17T10:58:34.338Z,16.11
2023-02-17T11:01:05.521Z,16.75
2023-02-17T11:03:36.962Z,17.29
2023-02-17T11:06:07.677Z,17.12
2023-02-17T11:08:41.547Z,17.54
2023-02-17T11:11:16.068Z,17.43
2023-02-17T11:13:58.171Z,17.56
2023-02-17T11:16:32.486Z,16.41
2023-02-17T11:19:01.279Z,16.11
2023-02-17T11:21:33.256Z,17.06
2023-02-17T11:24:04.790Z,17.11
2023-02-17T11:26:35.552Z,15.94
2023-02-17T11:29:22.802Z,17.48
2023-02-17T11:32:04.922Z,16.60
2023-02-17T11:34:34.909Z,16.36
2023-02-17T11:37:12.107Z,14.98
2023-02-17T11:39:42.267Z,15.31
2023-02-17T11:42:30.784Z,16.32
2023-02-17T11:45:00.623Z,16.32
2023-02-17T11:47:52.073Z,16.91
2023-02-17T11:50:40.921Z,16.50
2023-02-17T11:53:47.409Z,18.12
2023-02-17T11:56:22.814Z,16.98
2023-02-17T11:59:07.628Z,17.36
2023-02-17T12:01:50.204Z,17.04
2023-02-17T12:04:27.185Z,17.11
2023-02-17T12:07:15.377Z,17.20
2023-02-17T12:10:07.151Z,17.53
2023-02-17T12:13:13.719Z,17.15
2023-02-17T12:16:07.702Z,17.76
2023-02-17T12:19:19.773Z,17.27
2023-02-17T12:22:19.549Z,16.63
2023-02-17T12:25:11.504Z,16.77
2023-02-17T12:28:15.175Z,17.80
2023-02-17T12:31:05.134Z,16.74
2023-02-17T12:33:44.912Z,17.74
2023-02-17T12:36:16.018Z,18.59
2023-02-17T12:38:50.087Z,18.96
2023-02-17T12:41:41.292Z,18.80
2023-02-17T12:44:21.375Z,18.91
2023-02-17T12:46:57.475Z,19.35
2023-02-17T12:49:48.451Z,19.00
2023-02-17T12:52:22.340Z,19.19
2023-02-17T12:55:05.191Z,20.24
2023-02-17T12:57:56.205Z,19.63
2023-02-17T13:00:27.283Z,19.01
2023-02-17T13:02:59.179Z,18.06
2023-02-17T13:06:10.033Z,19.78
2023-02-17T13:08:57.735Z,19.13
2023-02-17T13:11:31.712Z,18.93
2023-02-17T13:14:24.966Z,17.42
2023-02-17T13:16:53.158Z,17.50
2023-02-17T13:19:32.385Z,18.01
2023-02-17T13:22:03.370Z,19.33
2023-02-17T13:24:53.234Z,21.63
2023-02-17T13:27:32.980Z,22.66
2023-02-17T13:30:29.443Z,22.08
2023-02-17T13:33:06.192Z,23.06
2023-02-17T13:35:37.426Z,22.23
2023-02-17T13:38:05.505Z,22.04
2023-02-17T13:40:39.243Z,21.07
2023-02-17T13:43:16.166Z,21.10
2023-02-17T13:46:03.265Z,20.71
2023-02-17T13:48:36.120Z,19.99
2023-02-17T13:51:07.145Z,19.60
2023-02-17T13:53:40.422Z,19.44
2023-02-17T13:56:12.310Z,19.51
2023-02-17T13:58:42.148Z,18.68
2023-02-17T14:01:17.507Z,19.07
2023-02-17T14:03:51.458Z,19.80
2023-02-17T14:06:40.501Z,22.09
2023-02-17T14:09:27.473Z,24.19
2023-02-17T14:11:56.185Z,25.79
2023-02-17T14:14:28.112Z,25.22
2023-02-17T14:17:09.247Z,22.84
2023-02-17T14:19:49.095Z,20.78
2023-02-17T14:22:34.138Z,20.08
2023-02-17T14:25:05.969Z,18.58
2023-02-17T14:27:52.976Z,18.79
2023-02-17T14:30:31.127Z,19.82
2023-02-17T14:33:23.968Z,21.17
2023-02-17T14:36:06.467Z,21.06
2023-02-17T14:38:41.444Z,19.20
2023-02-17T14:41:11.002Z,18.60
2023-02-17T14:43:38.906Z,17.84
2023-02-17T14:46:07.670Z,17.78
2023-02-17T14:48:35.805Z,17.69
2023-02-17T14:51:06.948Z,17.23
2023-02-17T14:53:40.518Z,17.14
2023-02-17T14:56:30.102Z,17.70
2023-02-17T14:58:57.749Z,19.05
2023-02-17T15:01:26.212Z,19.95
2023-02-17T15:03:54.910Z,19.34
2023-02-17T15:06:28.806Z,18.74
2023-02-17T15:08:58.648Z,18.98
2023-02-17T15:11:30.402Z,20.97
2023-02-17T15:13:57.966Z,22.65
2023-02-17T15:16:26.233Z,22.70
2023-02-17T15:18:54.902Z,24.96
2023-02-17T15:21:28.777Z,24.30
2023-02-17T15:23:58.776Z,24.34
2023-02-17T15:26:28.142Z,23.44
2023-02-17T15:28:57.759Z,22.71
2023-02-17T15:31:29.457Z,22.36
2023-02-17T15:33:59.594Z,21.40
2023-02-17T15:36:28.769Z,20.05
2023-02-17T15:38:56.594Z,19.20
2023-02-17T15:41:26.946Z,18.53
2023-02-17T15:43:57.403Z,18.39
2023-02-17T15:46:33.253Z,17.54
2023-02-17T15:49:01.268Z,17.15
2023-02-17T15:51:29.352Z,16.97
2023-02-17T15:53:57.017Z,16.58
2023-02-17T15:56:30.363Z,16.61
2023-02-17T15:59:04.468Z,16.24
2023-02-17T16:01:34.828Z,16.33
2023-02-17T16:04:03.156Z,16.47
2023-02-17T16:06:31.531Z,16.27
2023-02-17T16:08:59.778Z,16.10
2023-02-17T16:11:28.848Z,15.82
2023-02-17T16:13:56.901Z,15.50
2023-02-17T16:16:32.892Z,15.58
2023-02-17T16:19:01.974Z,15.41
2023-02-17T16:21:29.766Z,15.33
2023-02-17T16:23:59.901Z,15.19
2023-02-17T16:26:34.362Z,15.10
2023-02-17T16:29:17.354Z,15.00
2023-02-17T16:31:46.184Z,14.79
2023-02-17T16:34:18.521Z,14.72
2023-02-17T16:36:48.896Z,14.64
2023-02-17T16:39:20.204Z,14.54
2023-02-17T16:41:49.172Z,14.35
2023-02-17T16:44:20.220Z,14.28
2023-02-17T16:46:54.607Z,14.07
2023-02-17T16:49:32.726Z,13.83
2023-02-17T16:52:01.492Z,13.74
2023-02-17T16:54:29.674Z,13.68
2023-02-17T16:56:58.543Z,13.61
2023-02-17T16:59:26.816Z,13.45
2023-02-17T17:01:54.492Z,13.32
2023-02-17T17:04:22.330Z,13.25
2023-02-17T17:06:52.418Z,13.14
2023-02-17T17:09:23.821Z,13.05
2023-02-17T17:11:52.139Z,12.91
2023-02-17T17:14:21.629Z,12.77
2023-02-17T17:16:56.794Z,12.63
2023-02-17T17:19:25.567Z,12.67
2023-02-17T17:21:53.725Z,12.64
2023-02-17T17:24:22.098Z,12.56
2023-02-17T17:26:51.858Z,12.45
2023-02-17T17:29:20.726Z,12.29
2023-02-17T17:31:49.011Z,12.20
2023-02-17T17:34:17.191Z,12.18
2023-02-17T17:36:47.327Z,12.15
2023-02-17T17:39:18.701Z,12.00
2023-02-17T17:41:47.233Z,11.93
2023-02-17T17:44:16.303Z,11.82
2023-02-17T17:46:44.495Z,11.84
2023-02-17T17:49:14.597Z,11.81
2023-02-17T17:51:43.007Z,11.69
2023-02-17T17:54:11.626Z,11.64
2023-02-17T17:56:45.587Z,11.60
2023-02-17T17:59:14.322Z,11.59
2023-02-17T18:01:45.123Z,11.46
2023-02-17T18:04:14.195Z,11.47
2023-02-17T18:06:46.105Z,11.38
2023-02-17T18:09:31.083Z,11.29
2023-02-17T18:12:04.802Z,11.29
2023-02-17T18:14:33.111Z,11.27
2023-02-17T18:17:01.332Z,11.34
2023-02-17T18:19:30.906Z,11.29
2023-02-17T18:21:59.121Z,11.34
2023-02-17T18:24:27.165Z,11.25
2023-02-17T18:26:55.104Z,11.15
2023-02-17T18:29:23.015Z,11.12
2023-02-17T18:31:51.229Z,11.01
2023-02-17T18:34:19.561Z,11.04
2023-02-17T18:36:47.052Z,11.03
2023-02-17T18:39:15.406Z,11.02
2023-02-17T18:41:43.869Z,11.08
2023-02-17T18:44:13.732Z,11.03
2023-02-17T18:46:42.465Z,10.91
2023-02-17T18:49:10.496Z,10.74
2023-02-17T18:51:38.561Z,10.73
2023-02-17T18:54:10.797Z,10.72
2023-02-17T18:56:39.498Z,10.65
2023-02-17T18:59:08.116Z,10.52
2023-02-17T19:01:41.519Z,10.47
2023-02-17T19:04:10.239Z,10.46
2023-02-17T19:06:38.004Z,10.48
2023-02-17T19:09:06.229Z,10.46
2023-02-17T19:11:35.223Z,10.44
2023-02-17T19:14:03.441Z,10.46
2023-02-17T19:16:32.737Z,10.54
2023-02-17T19:19:00.879Z,10.55
2023-02-17T19:21:29.288Z,10.49
2023-02-17T19:23:56.815Z,10.43
2023-02-17T19:26:25.076Z,10.47
2023-02-17T19:28:53.210Z,10.44
2023-02-17T19:31:21.540Z,10.38
2023-02-17T19:33:49.821Z,10.32
2023-02-17T19:36:20.591Z,10.28
2023-02-17T19:38:49.987Z,10.13
2023-02-17T19:41:19.314Z,10.10
2023-02-17T19:43:47.400Z,10.03
2023-02-17T19:46:25.737Z,10.01
2023-02-17T19:48:53.749Z,9.93
2023-02-17T19:51:22.595Z,9.89
2023-02-17T19:53:50.600Z,9.81
2023-02-17T19:56:23.277Z,9.72
2023-02-17T19:58:52.108Z,9.71
2023-02-17T20:01:26.368Z,9.73
2023-02-17T20:03:55.208Z,9.75
2023-02-17T20:06:27.899Z,9.63
2023-02-17T20:09:05.070Z,9.70
2023-02-17T20:11:33.930Z,9.70
2023-02-17T20:14:02.135Z,9.66
2023-02-17T20:16:30.666Z,9.65
2023-02-17T20:19:02.044Z,9.64
2023-02-17T20:21:34.081Z,9.54
2023-02-17T20:24:03.428Z,9.44
2023-02-17T20:26:34.360Z,9.49
2023-02-17T20:29:02.992Z,9.45
2023-02-17T20:31:31.400Z,9.49
2023-02-17T20:34:02.155Z,9.36
2023-02-17T20:36:29.893Z,9.26
2023-02-17T20:38:58.472Z,9.24
2023-02-17T20:41:26.260Z,9.21
2023-02-17T20:43:54.267Z,9.13
2023-02-17T20:46:26.172Z,9.09
2023-02-17T20:48:54.533Z,9.16
2023-02-17T20:51:22.510Z,9.02
2023-02-17T20:53:51.300Z,8.98
2023-02-17T20:56:22.541Z,8.88
2023-02-17T20:58:51.797Z,8.91
2023-02-17T21:01:20.186Z,8.71
2023-02-17T21:03:48.306Z,8.73
2023-02-17T21:06:33.994Z,8.69
2023-02-17T21:09:05.674Z,8.79
2023-02-17T21:11:34.091Z,8.73
2023-02-17T21:14:02.101Z,8.75
2023-02-17T21:16:32.144Z,8.74
2023-02-17T21:19:01.485Z,8.72
2023-02-17T21:21:30.489Z,8.69
2023-02-17T21:23:59.812Z,8.57
2023-02-17T21:26:27.626Z,8.50
2023-02-17T21:28:56.183Z,8.51
2023-02-17T21:31:26.238Z,8.48
2023-02-17T21:33:53.896Z,8.48
2023-02-17T21:36:21.463Z,8.60
2023-02-17T21:38:49.453Z,8.55
2023-02-17T21:41:21.594Z,8.34
2023-02-17T21:44:08.164Z,8.38
2023-02-17T21:46:37.543Z,8.40
2023-02-17T21:49:05.574Z,8.34
2023-02-17T21:51:33.120Z,8.41
2023-02-17T21:54:01.212Z,8.46
2023-02-17T21:56:28.992Z,8.36
2023-02-17T21:58:57.876Z,8.37
2023-02-17T22:01:27.147Z,8.41
2023-02-17T22:03:55.305Z,8.32
2023-02-17T22:06:28.633Z,8.35
2023-02-17T22:08:58.078Z,8.35
2023-02-17T22:11:31.943Z,8.32
2023-02-17T22:14:04.991Z,8.31
2023-02-17T22:16:35.927Z,8.32
2023-02-17T22:19:05.237Z,8.23
2023-02-17T22:21:33.846Z,8.22
2023-02-17T22:24:02.721Z,8.17
2023-02-17T22:26:31.347Z,8.12
2023-02-17T22:28:59.495Z,8.15
2023-02-17T22:31:29.149Z,8.21
2023-02-17T22:33:59.115Z,8.25
2023-02-17T22:36:27.998Z,8.15
2023-02-17T22:38:56.510Z,8.09
2023-02-17T22:41:26.093Z,8.12
2023-02-17T22:43:54.579Z,8.03
2023-02-17T22:46:25.206Z,8.07
2023-02-17T22:48:54.839Z,8.01
2023-02-17T22:51:31.861Z,7.96
2023-02-17T22:54:02.904Z,7.96
2023-02-17T22:56:31.364Z,8.02
2023-02-17T22:59:01.574Z,7.95
2023-02-17T23:01:32.189Z,8.02
2023-02-17T23:04:00.931Z,8.09
2023-02-17T23:06:30.162Z,8.01
2023-02-17T23:08:59.750Z,7.99
2023-02-17T23:11:51.094Z,7.82
2023-02-17T23:14:34.050Z,7.90
2023-02-17T23:17:05.425Z,7.85
2023-02-17T23:19:33.284Z,7.84
2023-02-17T23:22:04.179Z,7.87
2023-02-17T23:24:32.445Z,7.79
2023-02-17T23:27:02.141Z,7.75
2023-02-17T23:29:31.981Z,7.70
2023-02-17T23:31:59.806Z,7.78
2023-02-17T23:34:28.419Z,7.86
2023-02-17T23:36:56.469Z,7.87
2023-02-17T23:39:24.596Z,7.76
2023-02-17T23:41:52.489Z,7.72
2023-02-17T23:44:20.197Z,7.75
2023-02-17T23:46:48.011Z,7.74
2023-02-17T23:49:17.089Z,7.70
2023-02-17T23:51:46.908Z,7.75
2023-02-17T23:54:15.819Z,7.72
2023-02-17T23:56:43.729Z,7.64
2023-02-17T23:59:12.162Z,7.60
